sensor_id;sensor_type;location;lat;lon;timestamp;P1;durP1;ratioP1;P2;durP2;ratioP2
3922;SDS011;1976;51.694;6.256;2024-03-17T00:02:20;14.43;;;6.73;;
3922;SDS011;1976;51.694;6.256;2024-03-17T00:04:46;8.00;;;6.13;;
3922;SDS011;1976;51.694;6.256;2024-03-17T00:07:12;13.10;;;7.33;;
3922;SDS011;1976;51.694;6.256;2024-03-17T00:09:39;15.97;;;7.40;;
3922;SDS011;1976;51.694;6.256;2024-03-17T00:12:05;11.67;;;7.20;;
3922;SDS011;1976;51.694;6.256;2024-03-17T00:14:31;28.80;;;7.80;;
3922;SDS011;1976;51.694;6.256;2024-03-17T00:16:56;12.30;;;6.40;;
3922;SDS011;1976;51.694;6.256;2024-03-17T00:19:25;9.97;;;7.03;;
3922;SDS011;1976;51.694;6.256;2024-03-17T00:21:51;9.33;;;6.60;;
3922;SDS011;1976;51.694;6.256;2024-03-17T00:24:16;11.73;;;6.50;;
3922;SDS011;1976;51.694;6.256;2024-03-17T00:26:42;24.80;;;7.50;;
3922;SDS011;1976;51.694;6.256;2024-03-17T00:29:08;12.60;;;7.13;;
3922;SDS011;1976;51.694;6.256;2024-03-17T00:31:33;11.93;;;7.50;;
3922;SDS011;1976;51.694;6.256;2024-03-17T00:33:59;17.63;;;7.20;;
3922;SDS011;1976;51.694;6.256;2024-03-17T00:36:25;11.13;;;6.53;;
3922;SDS011;1976;51.694;6.256;2024-03-17T00:38:50;16.27;;;7.50;;
3922;SDS011;1976;51.694;6.256;2024-03-17T00:41:18;14.33;;;8.33;;
3922;SDS011;1976;51.694;6.256;2024-03-17T00:43:44;9.83;;;7.40;;
3922;SDS011;1976;51.694;6.256;2024-03-17T00:46:10;16.33;;;7.33;;
3922;SDS011;1976;51.694;6.256;2024-03-17T00:48:37;13.03;;;7.60;;
3922;SDS011;1976;51.694;6.256;2024-03-17T00:51:02;13.40;;;8.20;;
3922;SDS011;1976;51.694;6.256;2024-03-17T00:53:28;22.20;;;6.87;;
3922;SDS011;1976;51.694;6.256;2024-03-17T00:55:54;13.27;;;7.90;;
3922;SDS011;1976;51.694;6.256;2024-03-17T00:58:23;8.97;;;6.57;;
3922;SDS011;1976;51.694;6.256;2024-03-17T01:00:48;9.50;;;6.90;;
3922;SDS011;1976;51.694;6.256;2024-03-17T01:03:15;15.90;;;6.73;;
3922;SDS011;1976;51.694;6.256;2024-03-17T01:05:43;9.73;;;6.60;;
3922;SDS011;1976;51.694;6.256;2024-03-17T01:08:12;10.77;;;7.50;;
3922;SDS011;1976;51.694;6.256;2024-03-17T01:10:38;9.87;;;6.63;;
3922;SDS011;1976;51.694;6.256;2024-03-17T01:13:05;9.53;;;6.87;;
3922;SDS011;1976;51.694;6.256;2024-03-17T01:15:32;9.33;;;6.80;;
3922;SDS011;1976;51.694;6.256;2024-03-17T01:17:58;11.10;;;6.13;;
3922;SDS011;1976;51.694;6.256;2024-03-17T01:20:24;9.40;;;6.20;;
3922;SDS011;1976;51.694;6.256;2024-03-17T01:22:50;9.90;;;7.30;;
3922;SDS011;1976;51.694;6.256;2024-03-17T01:25:16;13.90;;;7.43;;
3922;SDS011;1976;51.694;6.256;2024-03-17T01:27:41;18.23;;;6.83;;
3922;SDS011;1976;51.694;6.256;2024-03-17T01:30:08;9.70;;;5.97;;
3922;SDS011;1976;51.694;6.256;2024-03-17T01:32:35;8.97;;;6.20;;
3922;SDS011;1976;51.694;6.256;2024-03-17T01:35:00;10.10;;;6.27;;
3922;SDS011;1976;51.694;6.256;2024-03-17T01:37:26;9.53;;;6.20;;
3922;SDS011;1976;51.694;6.256;2024-03-17T01:39:51;11.17;;;6.07;;
3922;SDS011;1976;51.694;6.256;2024-03-17T01:42:17;15.50;;;5.90;;
3922;SDS011;1976;51.694;6.256;2024-03-17T01:44:43;7.80;;;5.40;;
3922;SDS011;1976;51.694;6.256;2024-03-17T01:47:08;21.57;;;6.77;;
3922;SDS011;1976;51.694;6.256;2024-03-17T01:49:34;8.63;;;5.80;;
3922;SDS011;1976;51.694;6.256;2024-03-17T01:52:01;16.10;;;6.30;;
3922;SDS011;1976;51.694;6.256;2024-03-17T01:54:28;9.27;;;6.23;;
3922;SDS011;1976;51.694;6.256;2024-03-17T01:56:54;7.77;;;5.20;;
3922;SDS011;1976;51.694;6.256;2024-03-17T01:59:20;7.00;;;5.27;;
3922;SDS011;1976;51.694;6.256;2024-03-17T02:01:46;9.60;;;5.47;;
3922;SDS011;1976;51.694;6.256;2024-03-17T02:04:11;9.50;;;5.27;;
3922;SDS011;1976;51.694;6.256;2024-03-17T02:06:37;7.57;;;5.73;;
3922;SDS011;1976;51.694;6.256;2024-03-17T02:09:04;9.73;;;6.70;;
3922;SDS011;1976;51.694;6.256;2024-03-17T02:11:30;10.60;;;5.53;;
3922;SDS011;1976;51.694;6.256;2024-03-17T02:13:57;8.83;;;5.10;;
3922;SDS011;1976;51.694;6.256;2024-03-17T02:16:24;8.47;;;5.43;;
3922;SDS011;1976;51.694;6.256;2024-03-17T02:18:56;15.50;;;8.13;;
3922;SDS011;1976;51.694;6.256;2024-03-17T02:21:23;13.13;;;5.30;;
3922;SDS011;1976;51.694;6.256;2024-03-17T02:23:50;10.80;;;5.83;;
3922;SDS011;1976;51.694;6.256;2024-03-17T02:26:19;9.80;;;5.50;;
3922;SDS011;1976;51.694;6.256;2024-03-17T02:28:45;10.80;;;6.17;;
3922;SDS011;1976;51.694;6.256;2024-03-17T02:31:12;7.17;;;5.10;;
3922;SDS011;1976;51.694;6.256;2024-03-17T02:33:39;6.70;;;5.37;;
3922;SDS011;1976;51.694;6.256;2024-03-17T02:36:05;11.47;;;6.27;;
3922;SDS011;1976;51.694;6.256;2024-03-17T02:38:37;8.83;;;6.50;;
3922;SDS011;1976;51.694;6.256;2024-03-17T02:41:24;11.73;;;6.33;;
3922;SDS011;1976;51.694;6.256;2024-03-17T02:43:51;9.60;;;5.80;;
3922;SDS011;1976;51.694;6.256;2024-03-17T02:46:17;11.17;;;6.07;;
3922;SDS011;1976;51.694;6.256;2024-03-17T02:48:44;11.67;;;6.43;;
3922;SDS011;1976;51.694;6.256;2024-03-17T02:51:14;8.77;;;5.33;;
3922;SDS011;1976;51.694;6.256;2024-03-17T02:53:41;8.67;;;6.10;;
3922;SDS011;1976;51.694;6.256;2024-03-17T02:56:08;15.93;;;6.60;;
3922;SDS011;1976;51.694;6.256;2024-03-17T02:58:37;7.20;;;6.00;;
3922;SDS011;1976;51.694;6.256;2024-03-17T03:01:04;18.33;;;7.10;;
3922;SDS011;1976;51.694;6.256;2024-03-17T03:03:31;8.20;;;6.10;;
3922;SDS011;1976;51.694;6.256;2024-03-17T03:05:57;9.53;;;5.63;;
3922;SDS011;1976;51.694;6.256;2024-03-17T03:08:24;13.03;;;6.30;;
3922;SDS011;1976;51.694;6.256;2024-03-17T03:10:50;10.57;;;6.10;;
3922;SDS011;1976;51.694;6.256;2024-03-17T03:13:16;6.37;;;5.60;;
3922;SDS011;1976;51.694;6.256;2024-03-17T03:15:41;16.23;;;6.30;;
3922;SDS011;1976;51.694;6.256;2024-03-17T03:18:08;14.93;;;6.20;;
3922;SDS011;1976;51.694;6.256;2024-03-17T03:20:34;10.43;;;6.97;;
3922;SDS011;1976;51.694;6.256;2024-03-17T03:23:00;7.97;;;6.00;;
3922;SDS011;1976;51.694;6.256;2024-03-17T03:25:27;10.40;;;6.37;;
3922;SDS011;1976;51.694;6.256;2024-03-17T03:27:53;13.03;;;6.87;;
3922;SDS011;1976;51.694;6.256;2024-03-17T03:30:21;14.43;;;7.03;;
3922;SDS011;1976;51.694;6.256;2024-03-17T03:32:47;14.90;;;6.97;;
3922;SDS011;1976;51.694;6.256;2024-03-17T03:35:13;12.73;;;7.17;;
3922;SDS011;1976;51.694;6.256;2024-03-17T03:37:39;10.00;;;6.40;;
3922;SDS011;1976;51.694;6.256;2024-03-17T03:40:06;9.40;;;6.20;;
3922;SDS011;1976;51.694;6.256;2024-03-17T03:42:42;14.83;;;6.90;;
3922;SDS011;1976;51.694;6.256;2024-03-17T03:45:08;12.53;;;6.33;;
3922;SDS011;1976;51.694;6.256;2024-03-17T03:47:37;16.27;;;6.50;;
3922;SDS011;1976;51.694;6.256;2024-03-17T03:50:07;17.93;;;6.90;;
3922;SDS011;1976;51.694;6.256;2024-03-17T03:52:34;12.63;;;7.00;;
3922;SDS011;1976;51.694;6.256;2024-03-17T03:55:00;12.63;;;6.73;;
3922;SDS011;1976;51.694;6.256;2024-03-17T03:57:26;17.50;;;6.00;;
3922;SDS011;1976;51.694;6.256;2024-03-17T03:59:54;8.70;;;6.17;;
3922;SDS011;1976;51.694;6.256;2024-03-17T04:02:20;14.17;;;5.97;;
3922;SDS011;1976;51.694;6.256;2024-03-17T04:04:46;16.33;;;6.60;;
3922;SDS011;1976;51.694;6.256;2024-03-17T04:07:12;12.40;;;6.50;;
3922;SDS011;1976;51.694;6.256;2024-03-17T04:09:38;11.90;;;7.03;;
3922;SDS011;1976;51.694;6.256;2024-03-17T04:12:04;19.40;;;7.43;;
3922;SDS011;1976;51.694;6.256;2024-03-17T04:14:30;11.27;;;7.07;;
3922;SDS011;1976;51.694;6.256;2024-03-17T04:16:56;17.70;;;8.30;;
3922;SDS011;1976;51.694;6.256;2024-03-17T04:19:21;11.23;;;8.00;;
3922;SDS011;1976;51.694;6.256;2024-03-17T04:21:47;20.73;;;7.87;;
3922;SDS011;1976;51.694;6.256;2024-03-17T04:24:13;14.63;;;7.87;;
3922;SDS011;1976;51.694;6.256;2024-03-17T04:26:38;14.63;;;6.77;;
3922;SDS011;1976;51.694;6.256;2024-03-17T04:29:04;13.13;;;7.37;;
3922;SDS011;1976;51.694;6.256;2024-03-17T04:31:30;11.63;;;7.80;;
3922;SDS011;1976;51.694;6.256;2024-03-17T04:33:56;12.23;;;6.80;;
3922;SDS011;1976;51.694;6.256;2024-03-17T04:36:22;14.53;;;7.73;;
3922;SDS011;1976;51.694;6.256;2024-03-17T04:38:47;10.37;;;7.33;;
3922;SDS011;1976;51.694;6.256;2024-03-17T04:41:16;15.50;;;7.43;;
3922;SDS011;1976;51.694;6.256;2024-03-17T04:43:43;12.83;;;7.13;;
3922;SDS011;1976;51.694;6.256;2024-03-17T04:46:09;15.13;;;7.10;;
3922;SDS011;1976;51.694;6.256;2024-03-17T04:48:36;14.80;;;8.00;;
3922;SDS011;1976;51.694;6.256;2024-03-17T04:51:03;9.57;;;7.10;;
3922;SDS011;1976;51.694;6.256;2024-03-17T04:53:29;13.83;;;7.93;;
3922;SDS011;1976;51.694;6.256;2024-03-17T04:56:01;11.00;;;7.97;;
3922;SDS011;1976;51.694;6.256;2024-03-17T04:58:29;18.53;;;8.10;;
3922;SDS011;1976;51.694;6.256;2024-03-17T05:00:55;12.63;;;7.93;;
3922;SDS011;1976;51.694;6.256;2024-03-17T05:03:21;16.10;;;7.60;;
3922;SDS011;1976;51.694;6.256;2024-03-17T05:05:47;17.97;;;8.77;;
3922;SDS011;1976;51.694;6.256;2024-03-17T05:08:13;14.00;;;8.67;;
3922;SDS011;1976;51.694;6.256;2024-03-17T05:10:38;19.90;;;9.47;;
3922;SDS011;1976;51.694;6.256;2024-03-17T05:13:04;13.23;;;7.60;;
3922;SDS011;1976;51.694;6.256;2024-03-17T05:15:29;13.87;;;8.70;;
3922;SDS011;1976;51.694;6.256;2024-03-17T05:17:55;16.50;;;8.80;;
3922;SDS011;1976;51.694;6.256;2024-03-17T05:20:20;13.30;;;8.83;;
3922;SDS011;1976;51.694;6.256;2024-03-17T05:22:46;17.40;;;8.63;;
3922;SDS011;1976;51.694;6.256;2024-03-17T05:25:13;14.03;;;8.20;;
3922;SDS011;1976;51.694;6.256;2024-03-17T05:27:38;13.30;;;7.40;;
3922;SDS011;1976;51.694;6.256;2024-03-17T05:30:04;9.77;;;7.03;;
3922;SDS011;1976;51.694;6.256;2024-03-17T05:32:33;14.10;;;7.23;;
3922;SDS011;1976;51.694;6.256;2024-03-17T05:34:59;8.93;;;6.60;;
3922;SDS011;1976;51.694;6.256;2024-03-17T05:37:24;11.40;;;7.13;;
3922;SDS011;1976;51.694;6.256;2024-03-17T05:39:50;11.27;;;6.70;;
3922;SDS011;1976;51.694;6.256;2024-03-17T05:42:15;11.73;;;7.30;;
3922;SDS011;1976;51.694;6.256;2024-03-17T05:44:41;11.60;;;6.50;;
3922;SDS011;1976;51.694;6.256;2024-03-17T05:47:16;12.73;;;5.50;;
3922;SDS011;1976;51.694;6.256;2024-03-17T05:49:43;12.27;;;7.37;;
3922;SDS011;1976;51.694;6.256;2024-03-17T05:52:08;14.70;;;7.50;;
3922;SDS011;1976;51.694;6.256;2024-03-17T05:54:34;9.27;;;7.30;;
3922;SDS011;1976;51.694;6.256;2024-03-17T05:56:59;14.70;;;6.30;;
3922;SDS011;1976;51.694;6.256;2024-03-17T05:59:25;9.00;;;6.90;;
3922;SDS011;1976;51.694;6.256;2024-03-17T06:01:50;14.60;;;6.80;;
3922;SDS011;1976;51.694;6.256;2024-03-17T06:04:16;10.80;;;6.13;;
3922;SDS011;1976;51.694;6.256;2024-03-17T06:06:42;6.97;;;5.43;;
3922;SDS011;1976;51.694;6.256;2024-03-17T06:09:08;11.77;;;7.50;;
3922;SDS011;1976;51.694;6.256;2024-03-17T06:11:35;13.47;;;6.30;;
3922;SDS011;1976;51.694;6.256;2024-03-17T06:14:01;8.43;;;5.50;;
3922;SDS011;1976;51.694;6.256;2024-03-17T06:16:29;13.03;;;7.10;;
3922;SDS011;1976;51.694;6.256;2024-03-17T06:18:56;8.37;;;5.67;;
3922;SDS011;1976;51.694;6.256;2024-03-17T06:21:21;11.17;;;7.70;;
3922;SDS011;1976;51.694;6.256;2024-03-17T06:23:47;23.33;;;7.80;;
3922;SDS011;1976;51.694;6.256;2024-03-17T06:26:12;8.40;;;6.27;;
3922;SDS011;1976;51.694;6.256;2024-03-17T06:28:38;12.03;;;7.03;;
3922;SDS011;1976;51.694;6.256;2024-03-17T06:31:03;9.03;;;6.20;;
3922;SDS011;1976;51.694;6.256;2024-03-17T06:33:32;14.13;;;6.43;;
3922;SDS011;1976;51.694;6.256;2024-03-17T06:35:58;9.13;;;5.90;;
3922;SDS011;1976;51.694;6.256;2024-03-17T06:38:29;9.53;;;6.10;;
3922;SDS011;1976;51.694;6.256;2024-03-17T06:40:54;11.77;;;6.80;;
3922;SDS011;1976;51.694;6.256;2024-03-17T06:43:20;7.63;;;6.50;;
3922;SDS011;1976;51.694;6.256;2024-03-17T06:45:58;17.53;;;5.83;;
3922;SDS011;1976;51.694;6.256;2024-03-17T06:48:25;9.77;;;6.53;;
3922;SDS011;1976;51.694;6.256;2024-03-17T06:50:51;9.50;;;6.40;;
3922;SDS011;1976;51.694;6.256;2024-03-17T06:53:19;24.50;;;7.10;;
3922;SDS011;1976;51.694;6.256;2024-03-17T06:55:52;9.60;;;6.77;;
3922;SDS011;1976;51.694;6.256;2024-03-17T06:58:21;9.33;;;7.17;;
3922;SDS011;1976;51.694;6.256;2024-03-17T07:00:58;10.90;;;6.03;;
3922;SDS011;1976;51.694;6.256;2024-03-17T07:03:27;12.50;;;7.70;;
3922;SDS011;1976;51.694;6.256;2024-03-17T07:05:55;11.03;;;6.87;;
3922;SDS011;1976;51.694;6.256;2024-03-17T07:08:22;10.30;;;6.30;;
3922;SDS011;1976;51.694;6.256;2024-03-17T07:10:58;7.90;;;6.10;;
3922;SDS011;1976;51.694;6.256;2024-03-17T07:13:31;12.07;;;6.50;;
3922;SDS011;1976;51.694;6.256;2024-03-17T07:15:58;10.03;;;5.90;;
3922;SDS011;1976;51.694;6.256;2024-03-17T07:18:30;13.57;;;6.27;;
3922;SDS011;1976;51.694;6.256;2024-03-17T07:21:00;8.30;;;6.50;;
3922;SDS011;1976;51.694;6.256;2024-03-17T07:23:29;9.37;;;6.73;;
3922;SDS011;1976;51.694;6.256;2024-03-17T07:25:56;8.33;;;6.53;;
3922;SDS011;1976;51.694;6.256;2024-03-17T07:28:23;11.10;;;6.47;;
3922;SDS011;1976;51.694;6.256;2024-03-17T07:30:50;13.40;;;6.47;;
3922;SDS011;1976;51.694;6.256;2024-03-17T07:33:17;22.23;;;6.70;;
3922;SDS011;1976;51.694;6.256;2024-03-17T07:35:51;7.80;;;5.53;;
3922;SDS011;1976;51.694;6.256;2024-03-17T07:38:18;8.17;;;5.80;;
3922;SDS011;1976;51.694;6.256;2024-03-17T07:40:44;7.27;;;5.20;;
3922;SDS011;1976;51.694;6.256;2024-03-17T07:43:19;6.70;;;5.90;;
3922;SDS011;1976;51.694;6.256;2024-03-17T07:45:45;10.60;;;6.07;;
3922;SDS011;1976;51.694;6.256;2024-03-17T07:48:12;6.93;;;5.50;;
3922;SDS011;1976;51.694;6.256;2024-03-17T07:50:38;13.50;;;5.80;;
3922;SDS011;1976;51.694;6.256;2024-03-17T07:53:04;6.73;;;4.60;;
3922;SDS011;1976;51.694;6.256;2024-03-17T07:55:30;5.77;;;4.23;;
3922;SDS011;1976;51.694;6.256;2024-03-17T07:57:56;6.20;;;5.03;;
3922;SDS011;1976;51.694;6.256;2024-03-17T08:00:22;9.23;;;4.33;;
3922;SDS011;1976;51.694;6.256;2024-03-17T08:02:48;2.27;;;2.07;;
3922;SDS011;1976;51.694;6.256;2024-03-17T08:05:13;7.90;;;5.33;;
3922;SDS011;1976;51.694;6.256;2024-03-17T08:07:39;9.10;;;5.47;;
3922;SDS011;1976;51.694;6.256;2024-03-17T08:10:07;10.20;;;5.23;;
3922;SDS011;1976;51.694;6.256;2024-03-17T08:12:33;8.50;;;5.10;;
3922;SDS011;1976;51.694;6.256;2024-03-17T08:14:59;8.43;;;5.50;;
3922;SDS011;1976;51.694;6.256;2024-03-17T08:17:24;4.63;;;3.20;;
3922;SDS011;1976;51.694;6.256;2024-03-17T08:19:50;6.33;;;4.17;;
3922;SDS011;1976;51.694;6.256;2024-03-17T08:22:16;14.00;;;5.70;;
3922;SDS011;1976;51.694;6.256;2024-03-17T08:24:42;8.53;;;3.83;;
3922;SDS011;1976;51.694;6.256;2024-03-17T08:27:08;6.93;;;4.70;;
3922;SDS011;1976;51.694;6.256;2024-03-17T08:29:34;9.17;;;5.20;;
3922;SDS011;1976;51.694;6.256;2024-03-17T08:31:59;10.20;;;5.43;;
3922;SDS011;1976;51.694;6.256;2024-03-17T08:34:25;10.13;;;5.83;;
3922;SDS011;1976;51.694;6.256;2024-03-17T08:36:50;10.07;;;5.90;;
3922;SDS011;1976;51.694;6.256;2024-03-17T08:39:16;7.50;;;5.43;;
3922;SDS011;1976;51.694;6.256;2024-03-17T08:41:41;8.03;;;6.10;;
3922;SDS011;1976;51.694;6.256;2024-03-17T08:44:09;7.57;;;5.23;;
3922;SDS011;1976;51.694;6.256;2024-03-17T08:46:35;6.07;;;4.50;;
3922;SDS011;1976;51.694;6.256;2024-03-17T08:49:00;6.50;;;5.33;;
3922;SDS011;1976;51.694;6.256;2024-03-17T08:51:26;10.23;;;6.30;;
3922;SDS011;1976;51.694;6.256;2024-03-17T08:53:52;5.73;;;4.97;;
3922;SDS011;1976;51.694;6.256;2024-03-17T08:56:18;6.80;;;5.30;;
3922;SDS011;1976;51.694;6.256;2024-03-17T08:58:45;6.70;;;5.20;;
3922;SDS011;1976;51.694;6.256;2024-03-17T09:01:11;15.27;;;5.57;;
3922;SDS011;1976;51.694;6.256;2024-03-17T09:03:40;8.63;;;5.50;;
3922;SDS011;1976;51.694;6.256;2024-03-17T09:06:15;13.03;;;5.27;;
3922;SDS011;1976;51.694;6.256;2024-03-17T09:08:41;12.20;;;5.77;;
3922;SDS011;1976;51.694;6.256;2024-03-17T09:11:11;6.93;;;5.30;;
3922;SDS011;1976;51.694;6.256;2024-03-17T09:13:37;5.47;;;4.90;;
3922;SDS011;1976;51.694;6.256;2024-03-17T09:16:03;8.37;;;5.53;;
3922;SDS011;1976;51.694;6.256;2024-03-17T09:18:29;6.03;;;4.93;;
3922;SDS011;1976;51.694;6.256;2024-03-17T09:21:00;12.20;;;5.83;;
3922;SDS011;1976;51.694;6.256;2024-03-17T09:23:30;8.00;;;4.40;;
3922;SDS011;1976;51.694;6.256;2024-03-17T09:25:59;6.17;;;4.80;;
3922;SDS011;1976;51.694;6.256;2024-03-17T09:28:27;7.27;;;5.20;;
3922;SDS011;1976;51.694;6.256;2024-03-17T09:30:53;8.67;;;5.63;;
3922;SDS011;1976;51.694;6.256;2024-03-17T09:33:20;10.83;;;5.83;;
3922;SDS011;1976;51.694;6.256;2024-03-17T09:35:53;10.07;;;5.73;;
3922;SDS011;1976;51.694;6.256;2024-03-17T09:38:29;8.50;;;4.83;;
3922;SDS011;1976;51.694;6.256;2024-03-17T09:40:55;12.73;;;5.33;;
3922;SDS011;1976;51.694;6.256;2024-03-17T09:43:26;5.97;;;4.43;;
3922;SDS011;1976;51.694;6.256;2024-03-17T09:45:52;8.27;;;5.00;;
3922;SDS011;1976;51.694;6.256;2024-03-17T09:48:22;10.33;;;5.47;;
3922;SDS011;1976;51.694;6.256;2024-03-17T09:50:56;9.63;;;4.67;;
3922;SDS011;1976;51.694;6.256;2024-03-17T09:53:30;6.37;;;4.93;;
3922;SDS011;1976;51.694;6.256;2024-03-17T09:55:58;11.97;;;5.93;;
3922;SDS011;1976;51.694;6.256;2024-03-17T09:58:28;6.70;;;4.80;;
3922;SDS011;1976;51.694;6.256;2024-03-17T10:00:53;15.60;;;4.93;;
3922;SDS011;1976;51.694;6.256;2024-03-17T10:06:23;6.97;;;4.93;;
3922;SDS011;1976;51.694;6.256;2024-03-17T10:08:51;4.73;;;4.23;;
3922;SDS011;1976;51.694;6.256;2024-03-17T10:11:22;10.73;;;5.20;;
3922;SDS011;1976;51.694;6.256;2024-03-17T10:14:13;9.10;;;5.30;;
3922;SDS011;1976;51.694;6.256;2024-03-17T10:16:36;11.67;;;5.30;;
3922;SDS011;1976;51.694;6.256;2024-03-17T10:21:35;7.90;;;5.00;;
3922;SDS011;1976;51.694;6.256;2024-03-17T10:24:20;6.83;;;5.07;;
3922;SDS011;1976;51.694;6.256;2024-03-17T10:29:32;9.37;;;4.97;;
3922;SDS011;1976;51.694;6.256;2024-03-17T10:32:04;5.83;;;4.43;;
3922;SDS011;1976;51.694;6.256;2024-03-17T10:34:39;10.67;;;4.90;;
3922;SDS011;1976;51.694;6.256;2024-03-17T10:37:15;6.57;;;4.63;;
3922;SDS011;1976;51.694;6.256;2024-03-17T10:39:45;9.37;;;4.80;;
3922;SDS011;1976;51.694;6.256;2024-03-17T10:42:14;5.57;;;4.00;;
3922;SDS011;1976;51.694;6.256;2024-03-17T10:44:49;9.17;;;5.07;;
3922;SDS011;1976;51.694;6.256;2024-03-17T10:47:22;7.70;;;4.40;;
3922;SDS011;1976;51.694;6.256;2024-03-17T10:49:52;7.70;;;4.70;;
3922;SDS011;1976;51.694;6.256;2024-03-17T10:52:19;7.70;;;5.20;;
3922;SDS011;1976;51.694;6.256;2024-03-17T10:54:49;6.83;;;4.67;;
3922;SDS011;1976;51.694;6.256;2024-03-17T11:00:03;6.37;;;5.07;;
3922;SDS011;1976;51.694;6.256;2024-03-17T11:02:30;8.80;;;4.33;;
3922;SDS011;1976;51.694;6.256;2024-03-17T11:05:09;7.97;;;4.97;;
3922;SDS011;1976;51.694;6.256;2024-03-17T11:07:39;11.00;;;5.60;;
3922;SDS011;1976;51.694;6.256;2024-03-17T11:10:11;7.00;;;4.93;;
3922;SDS011;1976;51.694;6.256;2024-03-17T11:17:56;6.53;;;5.07;;
3922;SDS011;1976;51.694;6.256;2024-03-17T11:20:56;6.50;;;5.13;;
3922;SDS011;1976;51.694;6.256;2024-03-17T11:23:56;7.60;;;5.53;;
3922;SDS011;1976;51.694;6.256;2024-03-17T11:26:27;9.03;;;5.13;;
3922;SDS011;1976;51.694;6.256;2024-03-17T11:28:54;9.47;;;5.83;;
3922;SDS011;1976;51.694;6.256;2024-03-17T11:31:40;6.40;;;5.30;;
3922;SDS011;1976;51.694;6.256;2024-03-17T11:36:51;7.20;;;5.13;;
3922;SDS011;1976;51.694;6.256;2024-03-17T11:39:18;9.00;;;5.07;;
3922;SDS011;1976;51.694;6.256;2024-03-17T11:41:50;6.30;;;4.83;;
3922;SDS011;1976;51.694;6.256;2024-03-17T11:49:31;7.10;;;4.93;;
3922;SDS011;1976;51.694;6.256;2024-03-17T11:52:13;12.70;;;5.50;;
3922;SDS011;1976;51.694;6.256;2024-03-17T11:54:41;6.93;;;4.90;;
3922;SDS011;1976;51.694;6.256;2024-03-17T11:59:36;9.10;;;5.10;;
3922;SDS011;1976;51.694;6.256;2024-03-17T12:02:06;7.90;;;5.50;;
3922;SDS011;1976;51.694;6.256;2024-03-17T12:04:39;8.83;;;5.43;;
3922;SDS011;1976;51.694;6.256;2024-03-17T12:07:07;6.13;;;5.47;;
3922;SDS011;1976;51.694;6.256;2024-03-17T12:09:38;11.53;;;5.50;;
3922;SDS011;1976;51.694;6.256;2024-03-17T12:12:11;8.37;;;5.30;;
3922;SDS011;1976;51.694;6.256;2024-03-17T12:14:41;8.10;;;5.40;;
3922;SDS011;1976;51.694;6.256;2024-03-17T12:17:11;8.07;;;5.37;;
3922;SDS011;1976;51.694;6.256;2024-03-17T12:19:39;9.97;;;5.23;;
3922;SDS011;1976;51.694;6.256;2024-03-17T12:22:05;10.50;;;5.50;;
3922;SDS011;1976;51.694;6.256;2024-03-17T12:24:35;6.70;;;4.97;;
3922;SDS011;1976;51.694;6.256;2024-03-17T12:27:04;9.30;;;4.93;;
3922;SDS011;1976;51.694;6.256;2024-03-17T12:29:31;9.27;;;5.23;;
3922;SDS011;1976;51.694;6.256;2024-03-17T12:31:59;9.57;;;5.50;;
3922;SDS011;1976;51.694;6.256;2024-03-17T12:34:29;6.83;;;4.10;;
3922;SDS011;1976;51.694;6.256;2024-03-17T12:36:56;9.80;;;5.80;;
3922;SDS011;1976;51.694;6.256;2024-03-17T12:39:23;9.13;;;6.00;;
3922;SDS011;1976;51.694;6.256;2024-03-17T12:42:09;17.00;;;4.60;;
3922;SDS011;1976;51.694;6.256;2024-03-17T12:44:39;5.27;;;4.40;;
3922;SDS011;1976;51.694;6.256;2024-03-17T12:47:14;11.00;;;5.17;;
3922;SDS011;1976;51.694;6.256;2024-03-17T12:49:48;7.77;;;5.23;;
3922;SDS011;1976;51.694;6.256;2024-03-17T12:52:21;7.17;;;4.70;;
3922;SDS011;1976;51.694;6.256;2024-03-17T12:55:01;4.27;;;3.67;;
3922;SDS011;1976;51.694;6.256;2024-03-17T12:57:50;9.33;;;4.80;;
3922;SDS011;1976;51.694;6.256;2024-03-17T13:00:36;6.83;;;5.10;;
3922;SDS011;1976;51.694;6.256;2024-03-17T13:03:02;12.77;;;5.07;;
3922;SDS011;1976;51.694;6.256;2024-03-17T13:05:32;7.50;;;5.30;;
3922;SDS011;1976;51.694;6.256;2024-03-17T13:08:02;9.23;;;5.07;;
3922;SDS011;1976;51.694;6.256;2024-03-17T13:10:29;9.23;;;4.27;;
3922;SDS011;1976;51.694;6.256;2024-03-17T13:13:07;6.30;;;4.60;;
3922;SDS011;1976;51.694;6.256;2024-03-17T13:15:34;9.80;;;5.23;;
3922;SDS011;1976;51.694;6.256;2024-03-17T13:18:03;7.63;;;4.63;;
3922;SDS011;1976;51.694;6.256;2024-03-17T13:20:30;7.90;;;4.67;;
3922;SDS011;1976;51.694;6.256;2024-03-17T13:22:56;5.50;;;4.63;;
3922;SDS011;1976;51.694;6.256;2024-03-17T13:25:23;5.33;;;4.63;;
3922;SDS011;1976;51.694;6.256;2024-03-17T13:27:51;8.43;;;4.50;;
3922;SDS011;1976;51.694;6.256;2024-03-17T13:30:18;8.00;;;4.60;;
3922;SDS011;1976;51.694;6.256;2024-03-17T13:32:47;8.10;;;4.53;;
3922;SDS011;1976;51.694;6.256;2024-03-17T13:35:17;12.77;;;4.80;;
3922;SDS011;1976;51.694;6.256;2024-03-17T13:37:44;6.93;;;4.60;;
3922;SDS011;1976;51.694;6.256;2024-03-17T13:40:11;13.00;;;5.60;;
3922;SDS011;1976;51.694;6.256;2024-03-17T13:42:43;11.13;;;4.67;;
3922;SDS011;1976;51.694;6.256;2024-03-17T13:45:15;7.70;;;4.20;;
3922;SDS011;1976;51.694;6.256;2024-03-17T13:47:43;10.10;;;5.37;;
3922;SDS011;1976;51.694;6.256;2024-03-17T13:50:12;8.80;;;5.70;;
3922;SDS011;1976;51.694;6.256;2024-03-17T13:52:41;6.47;;;4.40;;
3922;SDS011;1976;51.694;6.256;2024-03-17T13:55:14;6.10;;;4.73;;
3922;SDS011;1976;51.694;6.256;2024-03-17T13:57:42;5.23;;;3.17;;
3922;SDS011;1976;51.694;6.256;2024-03-17T14:00:09;2.90;;;2.60;;
3922;SDS011;1976;51.694;6.256;2024-03-17T14:02:35;3.37;;;2.50;;
3922;SDS011;1976;51.694;6.256;2024-03-17T14:05:01;3.63;;;3.33;;
3922;SDS011;1976;51.694;6.256;2024-03-17T14:07:27;8.10;;;5.13;;
3922;SDS011;1976;51.694;6.256;2024-03-17T14:09:53;5.73;;;3.87;;
3922;SDS011;1976;51.694;6.256;2024-03-17T14:12:18;8.00;;;5.00;;
3922;SDS011;1976;51.694;6.256;2024-03-17T14:14:44;9.93;;;4.80;;
3922;SDS011;1976;51.694;6.256;2024-03-17T14:17:09;8.87;;;4.90;;
3922;SDS011;1976;51.694;6.256;2024-03-17T14:19:36;6.37;;;4.70;;
3922;SDS011;1976;51.694;6.256;2024-03-17T14:22:01;5.23;;;3.50;;
3922;SDS011;1976;51.694;6.256;2024-03-17T14:24:27;4.27;;;3.43;;
3922;SDS011;1976;51.694;6.256;2024-03-17T14:26:53;8.00;;;4.53;;
3922;SDS011;1976;51.694;6.256;2024-03-17T14:29:19;9.60;;;3.47;;
3922;SDS011;1976;51.694;6.256;2024-03-17T14:31:45;12.43;;;5.33;;
3922;SDS011;1976;51.694;6.256;2024-03-17T14:34:10;9.43;;;5.73;;
3922;SDS011;1976;51.694;6.256;2024-03-17T14:36:36;7.50;;;4.17;;
3922;SDS011;1976;51.694;6.256;2024-03-17T14:39:02;7.93;;;4.77;;
3922;SDS011;1976;51.694;6.256;2024-03-17T14:41:28;7.20;;;5.07;;
3922;SDS011;1976;51.694;6.256;2024-03-17T14:43:55;12.50;;;5.13;;
3922;SDS011;1976;51.694;6.256;2024-03-17T14:46:22;7.87;;;4.37;;
3922;SDS011;1976;51.694;6.256;2024-03-17T14:48:48;7.67;;;5.17;;
3922;SDS011;1976;51.694;6.256;2024-03-17T14:51:15;7.13;;;4.70;;
3922;SDS011;1976;51.694;6.256;2024-03-17T14:53:42;9.57;;;4.87;;
3922;SDS011;1976;51.694;6.256;2024-03-17T14:56:13;6.00;;;3.80;;
3922;SDS011;1976;51.694;6.256;2024-03-17T14:58:42;9.33;;;4.73;;
3922;SDS011;1976;51.694;6.256;2024-03-17T15:01:09;7.50;;;4.30;;
3922;SDS011;1976;51.694;6.256;2024-03-17T15:03:35;13.07;;;4.47;;
3922;SDS011;1976;51.694;6.256;2024-03-17T15:06:01;4.40;;;3.90;;
3922;SDS011;1976;51.694;6.256;2024-03-17T15:08:29;9.53;;;4.10;;
3922;SDS011;1976;51.694;6.256;2024-03-17T15:10:55;9.70;;;4.47;;
3922;SDS011;1976;51.694;6.256;2024-03-17T15:13:21;8.00;;;4.27;;
3922;SDS011;1976;51.694;6.256;2024-03-17T15:15:48;6.37;;;4.70;;
3922;SDS011;1976;51.694;6.256;2024-03-17T15:18:14;7.20;;;4.43;;
3922;SDS011;1976;51.694;6.256;2024-03-17T15:20:41;10.70;;;5.00;;
3922;SDS011;1976;51.694;6.256;2024-03-17T15:23:06;9.90;;;4.40;;
3922;SDS011;1976;51.694;6.256;2024-03-17T15:25:32;8.40;;;4.20;;
3922;SDS011;1976;51.694;6.256;2024-03-17T15:27:58;9.20;;;4.87;;
3922;SDS011;1976;51.694;6.256;2024-03-17T15:30:25;7.77;;;4.37;;
3922;SDS011;1976;51.694;6.256;2024-03-17T15:32:54;8.40;;;4.27;;
3922;SDS011;1976;51.694;6.256;2024-03-17T15:35:23;10.80;;;5.00;;
3922;SDS011;1976;51.694;6.256;2024-03-17T15:37:48;4.73;;;4.00;;
3922;SDS011;1976;51.694;6.256;2024-03-17T15:40:14;8.40;;;4.63;;
3922;SDS011;1976;51.694;6.256;2024-03-17T15:42:46;8.70;;;4.83;;